Time;durP1;ratioP1;P1;durP2;ratioP2;P2;SDS_P1;SDS_P2;PMS_P1;PMS_P2;Temp;Humidity;BMP_temperature;BMP_pressure;BME280_temperature;BME280_humidity;BME280_pressure;Samples;Min_cycle;Max_cycle;Signal;HPM_P1;HPM_P2
2022/08/08 00:01:29;;;;;;;;;1.33;1.33;;;;;;;;4942198;28;45429;-77
2022/08/08 00:04:04;;;;;;;;;1.33;1.33;;;;;;;;4954863;28;45296;-77
2022/08/08 00:06:55;;;;;;;;;1.33;1.33;;;;;;;;4954724;28;46291;-78
2022/08/08 00:09:24;;;;;;;;;1.33;0.33;;;;;;;;4834628;29;45292;-78
2022/08/08 00:12:00;;;;;;;;;2.00;2.00;;;;;;;;4841110;29;45443;-78
2022/08/08 00:14:41;;;;;;;;;2.33;2.33;;;;;;;;4840963;29;45521;-77
2022/08/08 00:17:16;;;;;;;;;2.33;2.33;;;;;;;;4845791;29;46321;-78
2022/08/08 00:19:43;;;;;;;;;1.33;1.33;;;;;;;;4850040;29;45397;-78
2022/08/08 00:22:14;;;;;;;;;1.00;1.00;;;;;;;;4856261;29;45304;-78
2022/08/08 00:24:45;;;;;;;;;2.00;2.00;;;;;;;;4862601;29;45580;-78
2022/08/08 00:27:11;;;;;;;;;2.00;2.00;;;;;;;;4862645;29;46610;-78
2022/08/08 00:29:36;;;;;;;;;1.00;1.00;;;;;;;;4862477;29;45526;-77
2022/08/08 00:32:10;;;;;;;;;1.00;1.00;;;;;;;;4862519;29;46789;-78
2022/08/08 00:37:31;;;;;;;;;2.00;2.00;;;;;;;;4855523;29;45452;-78
2022/08/08 00:40:16;;;;;;;;;4.67;3.00;;;;;;;;4861763;29;45583;-78
2022/08/08 00:42:53;;;;;;;;;2.00;2.00;;;;;;;;4862326;29;45409;-78
2022/08/08 00:45:31;;;;;;;;;1.67;1.67;;;;;;;;4876848;28;45405;-78
2022/08/08 00:48:14;;;;;;;;;2.00;2.00;;;;;;;;4959706;28;45450;-77
2022/08/08 00:50:58;;;;;;;;;2.00;2.00;;;;;;;;4959323;28;45477;-77
2022/08/08 00:53:23;;;;;;;;;1.00;1.00;;;;;;;;4959422;28;45335;-77
2022/08/08 00:55:51;;;;;;;;;2.33;2.33;;;;;;;;4959933;28;45274;-77
2022/08/08 00:58:29;;;;;;;;;1.67;1.67;;;;;;;;4959629;28;47285;-77
2022/08/08 01:00:59;;;;;;;;;2.00;2.00;;;;;;;;4959813;28;45408;-79
2022/08/08 01:03:48;;;;;;;;;1.67;1.67;;;;;;;;4958834;28;45546;-78
2022/08/08 01:06:13;;;;;;;;;2.00;2.00;;;;;;;;4959374;28;45357;-78
2022/08/08 01:08:38;;;;;;;;;1.00;1.00;;;;;;;;4958814;28;47308;-79
2022/08/08 01:11:18;;;;;;;;;1.67;1.67;;;;;;;;4959356;28;45497;-79
2022/08/08 01:13:53;;;;;;;;;1.00;0.00;;;;;;;;4959428;28;45367;-79
2022/08/08 01:16:18;;;;;;;;;1.67;1.67;;;;;;;;4959007;28;45305;-76
2022/08/08 01:19:11;;;;;;;;;2.67;2.67;;;;;;;;4971653;28;47202;-78
2022/08/08 01:21:36;;;;;;;;;1.33;1.33;;;;;;;;4947764;28;45692;-79
2022/08/08 01:24:25;;;;;;;;;1.33;1.33;;;;;;;;4959193;28;45370;-78
2022/08/08 01:27:08;;;;;;;;;3.00;3.00;;;;;;;;4961327;28;45462;-79
2022/08/08 01:29:39;;;;;;;;;2.00;2.00;;;;;;;;4957980;28;46100;-79
2022/08/08 01:32:23;;;;;;;;;0.33;0.33;;;;;;;;4953340;28;45280;-79
2022/08/08 01:34:52;;;;;;;;;1.00;1.00;;;;;;;;4957912;28;45334;-78
2022/08/08 01:37:36;;;;;;;;;1.00;1.00;;;;;;;;4959329;28;45466;-78
2022/08/08 01:40:16;;;;;;;;;2.00;2.00;;;;;;;;4945694;28;45793;-79
2022/08/08 01:42:50;;;;;;;;;2.00;2.00;;;;;;;;4958949;28;45373;-79
2022/08/08 01:45:18;;;;;;;;;1.33;1.33;;;;;;;;4959224;28;45406;-79
2022/08/08 01:47:46;;;;;;;;;1.33;1.33;;;;;;;;4958931;28;45405;-79
2022/08/08 01:50:21;;;;;;;;;1.67;1.67;;;;;;;;4958058;28;45480;-78
2022/08/08 01:52:52;;;;;;;;;2.00;2.00;;;;;;;;4958796;28;45414;-78
2022/08/08 01:55:27;;;;;;;;;0.00;0.00;;;;;;;;4959037;28;45380;-78
2022/08/08 01:57:52;;;;;;;;;2.00;2.00;;;;;;;;4959031;28;45366;-78
2022/08/08 02:00:20;;;;;;;;;2.00;2.00;;;;;;;;4958545;28;46144;-78
2022/08/08 02:03:01;;;;;;;;;0.33;0.33;;;;;;;;4958311;28;45486;-77
2022/08/08 02:05:26;;;;;;;;;2.00;2.00;;;;;;;;4958178;28;45428;-78
2022/08/08 02:08:10;;;;;;;;;2.33;2.33;;;;;;;;4954453;28;45358;-78
2022/08/08 02:10:54;;;;;;;;;2.67;2.67;;;;;;;;4952701;28;47199;-78
2022/08/08 02:13:23;;;;;;;;;3.33;2.00;;;;;;;;4952811;28;45355;-79
2022/08/08 02:16:09;;;;;;;;;2.00;2.00;;;;;;;;4958590;28;45219;-78
2022/08/08 02:18:34;;;;;;;;;3.33;2.33;;;;;;;;4955950;28;45295;-78
2022/08/08 02:23:51;;;;;;;;;1.00;1.00;;;;;;;;4956334;28;45346;-78
2022/08/08 02:26:23;;;;;;;;;1.00;1.00;;;;;;;;4956078;28;45383;-78
2022/08/08 02:29:07;;;;;;;;;2.00;2.00;;;;;;;;4956113;28;45483;-77
2022/08/08 02:31:58;;;;;;;;;1.67;1.67;;;;;;;;4956029;28;47175;-78
2022/08/08 02:34:35;;;;;;;;;1.33;1.33;;;;;;;;4897755;29;45469;-78
2022/08/08 02:37:07;;;;;;;;;2.00;2.00;;;;;;;;4898322;29;45419;-78
2022/08/08 02:39:41;;;;;;;;;2.00;2.00;;;;;;;;4897686;29;45418;-78
2022/08/08 02:42:09;;;;;;;;;1.67;1.67;;;;;;;;4897905;29;46126;-77
2022/08/08 02:44:46;;;;;;;;;2.00;2.00;;;;;;;;4898036;29;45556;-78
2022/08/08 02:47:12;;;;;;;;;1.67;1.67;;;;;;;;4898056;29;45626;-78
2022/08/08 02:50:07;;;;;;;;;2.00;2.00;;;;;;;;4898181;29;45401;-78
2022/08/08 02:52:35;;;;;;;;;1.33;1.33;;;;;;;;4907918;28;46796;-78
2022/08/08 02:55:03;;;;;;;;;2.33;2.00;;;;;;;;4903765;28;45538;-77
2022/08/08 02:57:40;;;;;;;;;2.67;2.67;;;;;;;;4917346;28;45445;-77
2022/08/08 03:00:16;;;;;;;;;2.00;2.00;;;;;;;;4901285;28;45558;-77
2022/08/08 03:03:00;;;;;;;;;2.00;2.00;;;;;;;;4916533;28;46174;-77
2022/08/08 03:05:44;;;;;;;;;2.00;2.00;;;;;;;;4916758;28;45496;-77
2022/08/08 03:08:12;;;;;;;;;2.33;1.33;;;;;;;;4910985;28;45434;-77
2022/08/08 03:10:40;;;;;;;;;1.00;1.00;;;;;;;;4913990;28;45511;-77
2022/08/08 03:13:24;;;;;;;;;1.33;1.33;;;;;;;;4957695;28;46386;-77
2022/08/08 03:15:52;;;;;;;;;2.00;2.00;;;;;;;;4953602;28;45399;-78
2022/08/08 03:18:24;;;;;;;;;2.00;2.00;;;;;;;;4956600;28;45355;-77
2022/08/08 03:20:51;;;;;;;;;5.00;2.33;;;;;;;;4956293;28;45471;-77
2022/08/08 03:23:16;;;;;;;;;2.00;2.00;;;;;;;;4957313;28;46214;-77
2022/08/08 03:25:43;;;;;;;;;1.00;1.00;;;;;;;;4957175;28;45295;-78
2022/08/08 03:28:19;;;;;;;;;2.33;2.00;;;;;;;;4957805;28;45337;-77
2022/08/08 03:30:45;;;;;;;;;3.00;3.00;;;;;;;;4957101;28;45423;-77
2022/08/08 03:33:19;;;;;;;;;1.67;1.67;;;;;;;;4943715;28;45335;-78
2022/08/08 03:35:46;;;;;;;;;4.33;2.00;;;;;;;;4956684;28;45223;-77
2022/08/08 03:38:11;;;;;;;;;2.00;2.00;;;;;;;;4956538;28;45603;-77
2022/08/08 03:40:37;;;;;;;;;2.00;2.00;;;;;;;;4957567;28;45421;-77
2022/08/08 03:43:03;;;;;;;;;2.00;2.00;;;;;;;;4956871;28;46467;-77
2022/08/08 03:45:28;;;;;;;;;2.00;2.00;;;;;;;;4956924;28;45652;-77
2022/08/08 03:47:58;;;;;;;;;3.00;3.00;;;;;;;;4957334;28;45370;-77
2022/08/08 03:50:24;;;;;;;;;2.00;2.00;;;;;;;;4957381;28;45473;-77
2022/08/08 03:52:49;;;;;;;;;1.67;1.67;;;;;;;;4955848;28;46955;-78
2022/08/08 03:55:16;;;;;;;;;3.00;2.00;;;;;;;;4957214;28;45371;-77
2022/08/08 03:57:46;;;;;;;;;4.00;2.67;;;;;;;;4957272;28;45364;-77
2022/08/08 04:00:13;;;;;;;;;1.00;1.00;;;;;;;;4956626;28;45322;-77
2022/08/08 04:02:38;;;;;;;;;2.00;2.00;;;;;;;;4956441;28;45436;-77
2022/08/08 04:05:04;;;;;;;;;1.00;1.00;;;;;;;;4952970;28;45355;-77
2022/08/08 04:07:36;;;;;;;;;1.33;1.33;;;;;;;;4956385;28;45465;-77
2022/08/08 04:10:01;;;;;;;;;1.33;1.33;;;;;;;;4957109;28;45423;-78
2022/08/08 04:12:27;;;;;;;;;2.00;2.00;;;;;;;;4956863;28;46113;-77
2022/08/08 04:14:52;;;;;;;;;4.00;3.00;;;;;;;;4956714;28;45413;-77
2022/08/08 04:17:17;;;;;;;;;2.00;2.00;;;;;;;;4956824;28;45662;-77
2022/08/08 04:19:42;;;;;;;;;1.33;1.33;;;;;;;;4957169;28;45327;-78
2022/08/08 04:22:07;;;;;;;;;4.00;2.00;;;;;;;;4956683;28;45406;-77
2022/08/08 04:24:33;;;;;;;;;2.00;2.00;;;;;;;;4956843;28;45339;-78
2022/08/08 04:26:58;;;;;;;;;1.00;1.00;;;;;;;;4957099;28;45315;-78
2022/08/08 04:29:23;;;;;;;;;1.67;1.67;;;;;;;;4956461;28;45513;-78
2022/08/08 04:31:48;;;;;;;;;4.00;3.00;;;;;;;;4955981;28;46262;-77
2022/08/08 04:34:13;;;;;;;;;2.00;2.00;;;;;;;;4956498;28;45410;-77
2022/08/08 04:36:39;;;;;;;;;2.67;2.00;;;;;;;;4956465;28;45309;-77
2022/08/08 04:39:04;;;;;;;;;3.00;3.00;;;;;;;;4956190;28;45434;-77
2022/08/08 04:41:29;;;;;;;;;2.00;2.00;;;;;;;;4956428;28;46144;-77
2022/08/08 04:43:54;;;;;;;;;2.00;2.00;;;;;;;;4956453;28;45564;-77
2022/08/08 04:46:19;;;;;;;;;2.00;2.00;;;;;;;;4956376;28;45449;-77
2022/08/08 04:48:44;;;;;;;;;2.33;2.33;;;;;;;;4956486;28;45316;-77
2022/08/08 04:51:10;;;;;;;;;1.33;1.33;;;;;;;;4956248;28;46255;-78
2022/08/08 04:53:36;;;;;;;;;1.00;1.00;;;;;;;;4955834;28;45353;-77
2022/08/08 04:56:01;;;;;;;;;3.33;1.67;;;;;;;;4956344;28;45645;-78
2022/08/08 04:58:26;;;;;;;;;2.00;2.00;;;;;;;;4955970;28;45532;-79
2022/08/08 05:00:51;;;;;;;;;2.00;2.00;;;;;;;;4956339;28;45378;-77
2022/08/08 05:03:17;;;;;;;;;2.67;2.67;;;;;;;;4957737;28;45452;-76
2022/08/08 05:05:42;;;;;;;;;1.00;1.00;;;;;;;;4959686;28;46636;-78
2022/08/08 05:08:07;;;;;;;;;1.33;1.33;;;;;;;;4959489;28;45334;-77
2022/08/08 05:10:33;;;;;;;;;3.00;3.00;;;;;;;;4959468;28;46137;-78
2022/08/08 05:12:58;;;;;;;;;2.00;2.00;;;;;;;;4958653;28;45457;-78
2022/08/08 05:15:23;;;;;;;;;2.00;2.00;;;;;;;;4959501;28;45341;-78
2022/08/08 05:17:48;;;;;;;;;3.00;3.00;;;;;;;;4959422;28;45362;-77
2022/08/08 05:20:13;;;;;;;;;2.00;2.00;;;;;;;;4958914;28;46068;-77
2022/08/08 05:22:39;;;;;;;;;2.00;2.00;;;;;;;;4958595;28;45397;-77
2022/08/08 05:25:04;;;;;;;;;2.67;2.67;;;;;;;;4959534;28;45369;-78
2022/08/08 05:27:29;;;;;;;;;2.33;2.33;;;;;;;;4958723;28;45301;-77
2022/08/08 05:29:55;;;;;;;;;3.00;3.00;;;;;;;;4959104;28;46245;-77
2022/08/08 05:32:20;;;;;;;;;5.00;3.67;;;;;;;;4959119;28;45450;-77
2022/08/08 05:34:45;;;;;;;;;2.67;2.67;;;;;;;;4945442;28;45363;-78
2022/08/08 05:37:11;;;;;;;;;3.00;3.00;;;;;;;;4957792;28;45402;-77
2022/08/08 05:39:37;;;;;;;;;3.00;3.00;;;;;;;;4957163;28;46234;-77
2022/08/08 05:42:03;;;;;;;;;2.33;2.33;;;;;;;;4958545;28;45465;-77
2022/08/08 05:44:29;;;;;;;;;1.00;1.00;;;;;;;;4958492;28;45489;-78
2022/08/08 05:46:55;;;;;;;;;2.00;2.00;;;;;;;;4959016;28;45408;-78
2022/08/08 05:49:21;;;;;;;;;2.00;2.00;;;;;;;;4958935;28;46185;-78
2022/08/08 05:51:46;;;;;;;;;2.00;2.00;;;;;;;;4958564;28;45369;-79
2022/08/08 05:54:12;;;;;;;;;2.00;2.00;;;;;;;;4958578;28;45480;-77
2022/08/08 05:56:38;;;;;;;;;3.00;3.00;;;;;;;;4958638;28;45338;-77
2022/08/08 05:59:04;;;;;;;;;2.00;2.00;;;;;;;;4958184;28;45317;-78
2022/08/08 06:01:30;;;;;;;;;2.33;2.33;;;;;;;;4958731;28;46223;-77
2022/08/08 06:04:03;;;;;;;;;3.00;3.00;;;;;;;;4954436;28;45381;-78
2022/08/08 06:06:31;;;;;;;;;2.33;2.33;;;;;;;;4956793;28;46245;-78
2022/08/08 06:09:03;;;;;;;;;1.33;1.33;;;;;;;;4957048;28;47272;-78
2022/08/08 06:11:31;;;;;;;;;2.00;2.00;;;;;;;;4957820;28;45490;-77
2022/08/08 06:13:56;;;;;;;;;2.00;2.00;;;;;;;;4953906;28;45428;-77
2022/08/08 06:16:22;;;;;;;;;1.00;1.00;;;;;;;;4949932;28;45404;-78
2022/08/08 06:18:49;;;;;;;;;2.00;2.00;;;;;;;;4958453;28;46203;-77
2022/08/08 06:21:15;;;;;;;;;2.67;2.67;;;;;;;;4957788;28;45334;-77
2022/08/08 06:23:40;;;;;;;;;1.33;1.33;;;;;;;;4958475;28;45416;-77
2022/08/08 06:26:08;;;;;;;;;2.00;2.00;;;;;;;;4958163;28;45416;-77
2022/08/08 06:28:36;;;;;;;;;2.00;2.00;;;;;;;;4949683;28;45305;-78
2022/08/08 06:31:03;;;;;;;;;2.33;2.33;;;;;;;;4954299;28;45443;-77
2022/08/08 06:33:48;;;;;;;;;1.67;1.67;;;;;;;;4958166;28;45390;-78
2022/08/08 06:36:20;;;;;;;;;3.67;3.33;;;;;;;;4974780;28;45297;-77
2022/08/08 06:38:49;;;;;;;;;2.00;2.00;;;;;;;;4975227;28;47374;-78
2022/08/08 06:41:16;;;;;;;;;2.00;2.00;;;;;;;;4975037;28;45450;-78
2022/08/08 06:43:43;;;;;;;;;2.00;2.00;;;;;;;;4975150;28;45541;-79
2022/08/08 06:46:09;;;;;;;;;2.33;2.33;;;;;;;;4975318;28;45506;-78
2022/08/08 06:48:35;;;;;;;;;1.33;1.33;;;;;;;;4975379;28;46313;-78
2022/08/08 06:51:01;;;;;;;;;2.00;2.00;;;;;;;;4975360;28;45516;-78
2022/08/08 06:53:28;;;;;;;;;1.67;1.33;;;;;;;;4956702;28;45300;-79
2022/08/08 06:55:53;;;;;;;;;2.00;2.00;;;;;;;;4965792;28;45247;-78
2022/08/08 06:58:18;;;;;;;;;2.00;2.00;;;;;;;;4966991;28;46231;-78
2022/08/08 07:00:45;;;;;;;;;2.33;2.33;;;;;;;;4974750;28;45363;-78
2022/08/08 07:03:13;;;;;;;;;3.00;3.00;;;;;;;;4969562;28;45460;-78
2022/08/08 07:05:39;;;;;;;;;2.00;2.00;;;;;;;;4957445;28;45496;-77
2022/08/08 07:08:06;;;;;;;;;2.00;2.00;;;;;;;;4968063;28;47173;-78
2022/08/08 07:10:34;;;;;;;;;2.67;2.33;;;;;;;;4974851;28;45557;-78
2022/08/08 07:13:04;;;;;;;;;3.00;3.00;;;;;;;;4961550;28;45482;-78
2022/08/08 07:15:35;;;;;;;;;2.00;2.00;;;;;;;;4955724;28;45339;-78
2022/08/08 07:18:03;;;;;;;;;2.67;2.67;;;;;;;;4957635;28;47196;-78
2022/08/08 07:20:29;;;;;;;;;1.67;1.67;;;;;;;;4957725;28;45452;-78
2022/08/08 07:22:58;;;;;;;;;3.67;2.00;;;;;;;;4946561;28;45473;-78
2022/08/08 07:25:24;;;;;;;;;2.33;2.33;;;;;;;;4950147;28;45485;-78
2022/08/08 07:27:50;;;;;;;;;1.67;1.67;;;;;;;;4956519;28;45473;-78
2022/08/08 07:30:15;;;;;;;;;2.00;2.00;;;;;;;;4957599;28;45397;-78
2022/08/08 07:32:41;;;;;;;;;1.67;1.67;;;;;;;;4957196;28;45453;-78
2022/08/08 07:35:06;;;;;;;;;2.00;2.00;;;;;;;;4957591;28;45545;-78
2022/08/08 07:37:32;;;;;;;;;4.00;2.33;;;;;;;;4956182;28;46252;-78
2022/08/08 07:39:59;;;;;;;;;1.00;1.00;;;;;;;;4952197;28;45314;-78
2022/08/08 07:42:25;;;;;;;;;1.67;1.67;;;;;;;;4949422;28;45434;-78
2022/08/08 07:44:50;;;;;;;;;2.00;2.00;;;;;;;;4955621;28;45385;-78
2022/08/08 07:47:15;;;;;;;;;3.00;2.67;;;;;;;;4957378;28;45467;-78
2022/08/08 07:49:40;;;;;;;;;1.33;1.33;;;;;;;;4956985;28;45474;-77
2022/08/08 07:52:08;;;;;;;;;3.00;3.00;;;;;;;;4957250;28;45285;-78
2022/08/08 07:54:38;;;;;;;;;1.67;1.67;;;;;;;;4957125;28;45462;-78
2022/08/08 07:57:16;;;;;;;;;4.00;4.00;;;;;;;;4943723;28;46957;-78
2022/08/08 07:59:47;;;;;;;;;3.00;3.00;;;;;;;;4957198;28;45345;-78
2022/08/08 08:02:16;;;;;;;;;3.00;3.00;;;;;;;;4957307;28;45419;-77
2022/08/08 08:04:43;;;;;;;;;3.00;3.00;;;;;;;;4957036;28;45291;-78
2022/08/08 08:07:09;;;;;;;;;2.67;2.67;;;;;;;;4942999;28;47145;-77
2022/08/08 08:09:38;;;;;;;;;1.67;1.67;;;;;;;;4956363;28;45402;-77
2022/08/08 08:12:04;;;;;;;;;2.33;2.33;;;;;;;;4952408;28;45386;-77
2022/08/08 08:14:34;;;;;;;;;3.00;2.00;;;;;;;;4946840;28;45298;-77
2022/08/08 08:16:59;;;;;;;;;2.00;2.00;;;;;;;;4956717;28;46418;-77
2022/08/08 08:19:29;;;;;;;;;3.00;3.00;;;;;;;;4956670;28;45413;-77
2022/08/08 08:21:54;;;;;;;;;1.00;1.00;;;;;;;;4956677;28;45453;-77
2022/08/08 08:24:19;;;;;;;;;2.00;2.00;;;;;;;;4956531;28;45548;-77
2022/08/08 08:26:45;;;;;;;;;2.00;2.00;;;;;;;;4956627;28;45573;-77
2022/08/08 08:29:10;;;;;;;;;3.33;3.33;;;;;;;;4956743;28;45410;-77
2022/08/08 08:31:35;;;;;;;;;3.67;2.33;;;;;;;;4956919;28;45459;-78
2022/08/08 08:34:01;;;;;;;;;3.00;3.00;;;;;;;;4956494;28;45442;-78
2022/08/08 08:36:26;;;;;;;;;2.33;2.33;;;;;;;;4953600;28;47122;-78
2022/08/08 08:38:52;;;;;;;;;2.33;2.33;;;;;;;;4958636;28;45367;-78
2022/08/08 08:41:18;;;;;;;;;4.00;3.00;;;;;;;;4960150;28;45450;-78
2022/08/08 08:43:45;;;;;;;;;0.67;0.67;;;;;;;;4960091;28;45338;-77
2022/08/08 08:46:11;;;;;;;;;3.00;3.00;;;;;;;;4959797;28;46354;-78
2022/08/08 08:48:36;;;;;;;;;5.00;3.00;;;;;;;;4959986;28;45386;-77
2022/08/08 08:51:03;;;;;;;;;2.67;2.67;;;;;;;;4959961;28;45388;-78
2022/08/08 08:53:31;;;;;;;;;2.00;2.00;;;;;;;;4959734;28;45433;-78
2022/08/08 08:55:57;;;;;;;;;2.00;2.00;;;;;;;;4959730;28;46653;-78
2022/08/08 08:58:22;;;;;;;;;2.00;2.00;;;;;;;;4959633;28;45398;-78
2022/08/08 09:00:47;;;;;;;;;2.33;2.33;;;;;;;;4960238;28;45306;-78
2022/08/08 09:03:12;;;;;;;;;2.67;2.67;;;;;;;;4959844;28;45212;-79
2022/08/08 09:05:39;;;;;;;;;2.33;2.33;;;;;;;;4957997;28;46206;-78
2022/08/08 09:08:05;;;;;;;;;1.33;1.33;;;;;;;;4959877;28;45355;-78
2022/08/08 09:10:31;;;;;;;;;2.00;2.00;;;;;;;;4959495;28;45501;-77
2022/08/08 09:12:57;;;;;;;;;1.33;1.33;;;;;;;;4959534;28;45441;-78
2022/08/08 09:15:23;;;;;;;;;3.00;3.00;;;;;;;;4959217;28;46955;-77
2022/08/08 09:17:48;;;;;;;;;3.00;3.00;;;;;;;;4964145;28;45322;-78
2022/08/08 09:20:15;;;;;;;;;2.33;2.33;;;;;;;;4968393;28;45338;-78
2022/08/08 09:22:40;;;;;;;;;3.00;1.00;;;;;;;;4959346;28;45461;-77
2022/08/08 09:25:06;;;;;;;;;2.33;2.33;;;;;;;;4959405;28;46324;-78
2022/08/08 09:27:31;;;;;;;;;2.33;2.33;;;;;;;;4958982;28;45506;-77
2022/08/08 09:30:05;;;;;;;;;2.50;2.50;;;;;;;;4959455;28;45366;-77
2022/08/08 09:32:46;;;;;;;;;1.33;1.33;;;;;;;;4959216;28;45444;-77
2022/08/08 09:35:12;;;;;;;;;2.00;2.00;;;;;;;;4958604;28;47283;-78
2022/08/08 09:37:43;;;;;;;;;2.67;2.67;;;;;;;;4958654;28;45374;-77
2022/08/08 09:40:09;;;;;;;;;1.33;1.33;;;;;;;;4959415;28;45299;-78
2022/08/08 09:42:35;;;;;;;;;2.33;2.33;;;;;;;;4958534;28;45512;-78
2022/08/08 09:45:04;;;;;;;;;3.00;3.00;;;;;;;;4958936;28;45382;-78
2022/08/08 09:47:33;;;;;;;;;3.33;1.67;;;;;;;;4959144;28;45452;-78
2022/08/08 09:50:01;;;;;;;;;2.00;2.00;;;;;;;;4957652;28;45358;-79
2022/08/08 09:52:29;;;;;;;;;1.33;1.33;;;;;;;;4959065;28;45308;-78
2022/08/08 09:54:54;;;;;;;;;2.33;2.33;;;;;;;;4958878;28;46157;-78
2022/08/08 09:57:30;;;;;;;;;2.67;2.67;;;;;;;;4958745;28;45273;-77
2022/08/08 09:59:58;;;;;;;;;2.33;2.33;;;;;;;;4959274;28;45433;-77
2022/08/08 10:02:29;;;;;;;;;2.00;1.00;;;;;;;;4958588;28;45383;-77
2022/08/08 10:05:01;;;;;;;;;3.00;3.00;;;;;;;;4958567;28;47149;-77
2022/08/08 10:07:26;;;;;;;;;3.00;3.00;;;;;;;;4958623;28;45402;-78
2022/08/08 10:09:51;;;;;;;;;2.33;2.33;;;;;;;;4958804;28;45344;-77
2022/08/08 10:12:17;;;;;;;;;4.00;3.00;;;;;;;;4958561;28;45456;-77
2022/08/08 10:14:42;;;;;;;;;1.67;1.67;;;;;;;;4958933;28;45357;-77
2022/08/08 10:17:08;;;;;;;;;3.00;3.00;;;;;;;;4958305;28;45271;-77
2022/08/08 10:19:35;;;;;;;;;1.33;1.33;;;;;;;;4958551;28;45426;-77
2022/08/08 10:22:01;;;;;;;;;2.00;2.00;;;;;;;;4958580;28;45398;-77
2022/08/08 10:24:27;;;;;;;;;4.00;2.00;;;;;;;;4958325;28;47221;-77
2022/08/08 10:26:57;;;;;;;;;2.33;2.33;;;;;;;;4958457;28;45505;-77
2022/08/08 10:29:33;;;;;;;;;2.33;2.33;;;;;;;;4958608;28;45376;-77
2022/08/08 10:34:51;;;;;;;;;3.00;3.00;;;;;;;;4957890;28;45401;-77
2022/08/08 10:37:30;;;;;;;;;2.00;2.00;;;;;;;;4957615;28;45400;-77
2022/08/08 10:39:56;;;;;;;;;1.00;1.00;;;;;;;;4958339;28;45441;-77
2022/08/08 10:42:22;;;;;;;;;1.33;1.33;;;;;;;;4957861;28;45577;-77
2022/08/08 10:44:48;;;;;;;;;2.00;1.33;;;;;;;;4958023;28;45408;-77
2022/08/08 10:47:14;;;;;;;;;1.67;1.67;;;;;;;;4957783;28;45338;-78
2022/08/08 10:49:40;;;;;;;;;2.00;2.00;;;;;;;;4957620;28;45434;-78
2022/08/08 10:52:05;;;;;;;;;2.00;2.00;;;;;;;;4957937;28;45520;-79
2022/08/08 10:54:30;;;;;;;;;2.00;2.00;;;;;;;;4957945;28;45993;-77
2022/08/08 10:56:59;;;;;;;;;2.67;2.67;;;;;;;;4957927;28;45507;-78
2022/08/08 10:59:25;;;;;;;;;3.00;3.00;;;;;;;;4958301;28;45401;-77
2022/08/08 11:01:50;;;;;;;;;2.00;2.00;;;;;;;;4971017;28;45579;-78
2022/08/08 11:04:16;;;;;;;;;2.33;2.33;;;;;;;;4957516;28;45884;-78
2022/08/08 11:06:41;;;;;;;;;2.33;2.33;;;;;;;;4957510;28;45248;-77
2022/08/08 11:09:08;;;;;;;;;2.00;2.00;;;;;;;;4957519;28;45257;-78
2022/08/08 11:11:37;;;;;;;;;2.00;2.00;;;;;;;;4957993;28;45390;-77
2022/08/08 11:14:03;;;;;;;;;2.67;2.00;;;;;;;;4957718;28;46969;-77
2022/08/08 11:16:31;;;;;;;;;2.00;2.00;;;;;;;;4957125;28;45473;-77
2022/08/08 11:18:58;;;;;;;;;1.33;1.33;;;;;;;;4957919;28;45713;-77
2022/08/08 11:21:23;;;;;;;;;1.33;1.33;;;;;;;;4957789;28;45477;-77
2022/08/08 11:23:49;;;;;;;;;3.33;3.33;;;;;;;;4957426;28;46332;-78
2022/08/08 11:26:18;;;;;;;;;1.67;1.67;;;;;;;;4957604;28;45390;-78
2022/08/08 11:28:43;;;;;;;;;1.00;1.00;;;;;;;;4957904;28;45484;-77
2022/08/08 11:31:10;;;;;;;;;2.00;2.00;;;;;;;;4956880;28;45441;-77
2022/08/08 11:33:36;;;;;;;;;2.00;2.00;;;;;;;;4956920;28;46988;-77
2022/08/08 11:36:02;;;;;;;;;2.00;1.00;;;;;;;;4956851;28;45448;-77
2022/08/08 11:38:27;;;;;;;;;2.33;2.33;;;;;;;;4956910;28;45208;-77
2022/08/08 11:40:53;;;;;;;;;2.33;2.33;;;;;;;;4957633;28;45243;-77
2022/08/08 11:43:19;;;;;;;;;2.00;2.00;;;;;;;;4955331;28;47386;-77
2022/08/08 11:45:45;;;;;;;;;3.00;3.00;;;;;;;;4957000;28;45439;-77
2022/08/08 11:48:11;;;;;;;;;2.33;1.67;;;;;;;;4957209;28;45315;-77
2022/08/08 11:50:37;;;;;;;;;2.00;2.00;;;;;;;;4956727;28;45433;-77
2022/08/08 11:53:02;;;;;;;;;2.00;2.00;;;;;;;;4956814;28;45405;-77
2022/08/08 11:55:27;;;;;;;;;1.33;1.33;;;;;;;;4956698;28;45391;-78
2022/08/08 11:57:59;;;;;;;;;3.67;3.67;;;;;;;;4957383;28;45362;-77
2022/08/08 12:00:27;;;;;;;;;2.67;2.33;;;;;;;;4956902;28;45597;-77
2022/08/08 12:02:56;;;;;;;;;2.00;2.00;;;;;;;;4956714;28;47065;-77
2022/08/08 12:05:35;;;;;;;;;1.33;1.33;;;;;;;;4943327;28;45215;-77
2022/08/08 12:08:00;;;;;;;;;3.33;3.33;;;;;;;;4956924;28;45219;-77
2022/08/08 12:10:27;;;;;;;;;1.67;1.67;;;;;;;;4956984;28;45486;-78
2022/08/08 12:13:06;;;;;;;;;2.00;2.00;;;;;;;;4956165;28;45336;-77
2022/08/08 12:15:32;;;;;;;;;2.00;1.67;;;;;;;;4956605;28;45645;-78
2022/08/08 12:17:57;;;;;;;;;1.00;1.00;;;;;;;;4956984;28;45363;-78
2022/08/08 12:20:23;;;;;;;;;2.00;2.00;;;;;;;;4956980;28;45513;-78
2022/08/08 12:22:50;;;;;;;;;1.00;1.00;;;;;;;;4952464;28;45994;-78
2022/08/08 12:25:22;;;;;;;;;2.00;2.00;;;;;;;;4947754;28;45440;-78
2022/08/08 12:27:48;;;;;;;;;2.00;2.00;;;;;;;;4956427;28;45280;-78
2022/08/08 12:30:13;;;;;;;;;1.00;1.00;;;;;;;;4956762;28;45324;-78
2022/08/08 12:32:42;;;;;;;;;1.33;1.33;;;;;;;;4956482;28;45493;-78
2022/08/08 12:35:17;;;;;;;;;2.00;2.00;;;;;;;;4956242;28;45339;-78
2022/08/08 12:37:42;;;;;;;;;2.00;2.00;;;;;;;;4956841;28;45968;-78
2022/08/08 12:40:12;;;;;;;;;2.33;2.33;;;;;;;;4956162;28;45308;-78
2022/08/08 12:42:44;;;;;;;;;2.00;2.00;;;;;;;;4956186;28;46397;-78
2022/08/08 12:45:10;;;;;;;;;2.00;2.00;;;;;;;;4956801;28;45454;-78
2022/08/08 12:47:35;;;;;;;;;3.00;2.00;;;;;;;;4956620;28;45353;-78
2022/08/08 12:50:00;;;;;;;;;1.67;1.67;;;;;;;;4957735;28;45397;-78
2022/08/08 12:52:29;;;;;;;;;2.00;2.00;;;;;;;;4955986;28;46233;-78
2022/08/08 12:55:02;;;;;;;;;3.00;2.00;;;;;;;;4956008;28;45549;-78
2022/08/08 12:57:28;;;;;;;;;2.33;2.33;;;;;;;;4956055;28;45316;-78
2022/08/08 12:59:53;;;;;;;;;2.33;2.33;;;;;;;;4956503;28;45390;-78
2022/08/08 13:02:23;;;;;;;;;3.00;3.00;;;;;;;;4956448;28;46429;-77
2022/08/08 13:04:49;;;;;;;;;1.00;1.00;;;;;;;;4956327;28;45424;-78
2022/08/08 13:07:15;;;;;;;;;2.00;2.00;;;;;;;;4956207;28;45403;-78
2022/08/08 13:09:41;;;;;;;;;1.67;1.67;;;;;;;;4956247;28;45543;-78
2022/08/08 13:12:10;;;;;;;;;2.00;2.00;;;;;;;;4955862;28;46927;-78
2022/08/08 13:14:39;;;;;;;;;2.00;2.00;;;;;;;;4956162;28;45452;-78
2022/08/08 13:17:05;;;;;;;;;1.00;1.00;;;;;;;;4956088;28;45302;-78
2022/08/08 13:19:30;;;;;;;;;1.00;1.00;;;;;;;;4955640;28;45536;-78
2022/08/08 13:21:56;;;;;;;;;1.00;1.00;;;;;;;;4956211;28;46221;-77
2022/08/08 13:24:21;;;;;;;;;2.00;1.00;;;;;;;;4942686;28;45248;-77
2022/08/08 13:26:46;;;;;;;;;0.33;0.33;;;;;;;;4959147;28;45366;-78
2022/08/08 13:29:12;;;;;;;;;2.00;2.00;;;;;;;;4959339;28;45369;-78
2022/08/08 13:31:47;;;;;;;;;1.33;1.33;;;;;;;;4959369;28;45918;-78
2022/08/08 13:34:23;;;;;;;;;2.00;2.00;;;;;;;;4958941;28;46015;-77
2022/08/08 13:36:49;;;;;;;;;1.67;1.67;;;;;;;;4951756;28;45469;-77
2022/08/08 13:39:15;;;;;;;;;1.00;1.00;;;;;;;;4954791;28;45240;-77
2022/08/08 13:41:40;;;;;;;;;2.67;2.67;;;;;;;;4958632;28;45397;-78
2022/08/08 13:44:06;;;;;;;;;2.00;2.00;;;;;;;;4958245;28;45452;-77
2022/08/08 13:46:31;;;;;;;;;2.00;2.00;;;;;;;;4959245;28;45347;-77
2022/08/08 13:48:57;;;;;;;;;1.67;1.00;;;;;;;;4959103;28;45408;-78
2022/08/08 13:51:22;;;;;;;;;1.33;1.33;;;;;;;;4958632;28;45450;-79
2022/08/08 13:53:51;;;;;;;;;2.00;2.00;;;;;;;;4958980;28;45449;-77
2022/08/08 13:56:26;;;;;;;;;1.33;1.33;;;;;;;;4956305;28;45481;-76
2022/08/08 13:58:51;;;;;;;;;2.00;2.00;;;;;;;;4954536;28;45252;-78
2022/08/08 14:01:17;;;;;;;;;1.00;1.00;;;;;;;;4952043;28;45285;-77
2022/08/08 14:03:53;;;;;;;;;2.00;2.00;;;;;;;;4958477;28;45375;-78
2022/08/08 14:06:18;;;;;;;;;1.00;1.00;;;;;;;;4958759;28;45485;-78
2022/08/08 14:08:44;;;;;;;;;3.00;1.00;;;;;;;;4958054;28;45470;-78
2022/08/08 14:11:19;;;;;;;;;2.00;2.00;;;;;;;;4958687;28;46813;-78
2022/08/08 14:13:45;;;;;;;;;1.00;1.00;;;;;;;;4958349;28;45395;-78
2022/08/08 14:16:11;;;;;;;;;1.00;1.00;;;;;;;;4958571;28;45295;-78
2022/08/08 14:18:37;;;;;;;;;2.00;2.00;;;;;;;;4958617;28;45530;-78
2022/08/08 14:21:04;;;;;;;;;2.00;2.00;;;;;;;;4958297;28;46212;-78
2022/08/08 14:23:39;;;;;;;;;1.67;1.67;;;;;;;;4957728;28;45552;-78
2022/08/08 14:26:04;;;;;;;;;1.67;1.33;;;;;;;;4958434;28;45903;-78
2022/08/08 14:28:30;;;;;;;;;3.00;1.00;;;;;;;;4958237;28;45530;-78
2022/08/08 14:31:05;;;;;;;;;2.00;2.00;;;;;;;;4958031;28;47026;-77
2022/08/08 14:33:31;;;;;;;;;1.00;1.00;;;;;;;;4958228;28;45406;-77
2022/08/08 14:35:59;;;;;;;;;2.00;1.00;;;;;;;;4956990;28;45342;-78
2022/08/08 14:38:28;;;;;;;;;1.33;1.33;;;;;;;;4945215;28;45295;-78
2022/08/08 14:40:53;;;;;;;;;1.67;1.67;;;;;;;;4958202;28;45348;-78
2022/08/08 14:43:19;;;;;;;;;2.00;2.00;;;;;;;;4957844;28;45433;-78
2022/08/08 14:45:46;;;;;;;;;2.00;2.00;;;;;;;;4958193;28;45497;-78
2022/08/08 14:48:11;;;;;;;;;0.33;0.33;;;;;;;;4957876;28;45335;-78
2022/08/08 14:50:37;;;;;;;;;1.00;1.00;;;;;;;;4958157;28;45515;-78
2022/08/08 14:53:03;;;;;;;;;2.00;2.00;;;;;;;;4957916;28;45299;-78
2022/08/08 14:55:30;;;;;;;;;1.67;1.67;;;;;;;;4958208;28;45348;-79
2022/08/08 14:57:56;;;;;;;;;1.67;1.00;;;;;;;;4958263;28;45216;-78
2022/08/08 15:00:21;;;;;;;;;1.33;1.33;;;;;;;;4957197;28;47446;-78